Time;durP1;ratioP1;P1;durP2;ratioP2;P2;SDS_P1;SDS_P2;PMS_P1;PMS_P2;Temp;Humidity;BMP_temperature;BMP_pressure;BME280_temperature;BME280_humidity;BME280_pressure;Samples;Min_cycle;Max_cycle;Signal;HPM_P1;HPM_P2
2021/10/26 00:00:43;;;;;;;14.18;5.45;;;11.90;99.90;;;;;;6168347;23;20004;-87
2021/10/26 00:03:09;;;;;;;13.80;5.90;;;11.90;99.90;;;;;;6195075;23;19997;-87
2021/10/26 00:05:35;;;;;;;11.55;5.45;;;11.90;99.90;;;;;;6194497;23;19993;-87
2021/10/26 00:08:01;;;;;;;10.93;4.85;;;11.80;99.90;;;;;;6168374;23;20013;-88
2021/10/26 00:10:27;;;;;;;12.20;5.03;;;11.80;99.90;;;;;;6194504;23;20328;-87
2021/10/26 00:12:52;;;;;;;12.82;5.22;;;11.80;99.90;;;;;;6194580;23;20004;-87
2021/10/26 00:15:19;;;;;;;12.60;5.70;;;11.80;99.90;;;;;;6168481;23;20000;-87
2021/10/26 00:17:45;;;;;;;14.43;5.55;;;11.80;99.90;;;;;;6194221;23;19997;-87
2021/10/26 00:20:11;;;;;;;12.40;5.38;;;11.70;99.90;;;;;;6194286;23;20004;-88
2021/10/26 00:22:36;;;;;;;13.57;5.55;;;11.70;99.90;;;;;;6167874;23;20001;-87
2021/10/26 00:25:03;;;;;;;15.57;5.85;;;11.70;99.90;;;;;;6193944;23;20005;-88
2021/10/26 00:27:29;;;;;;;18.92;6.97;;;11.70;99.90;;;;;;6193405;23;20013;-88
2021/10/26 00:29:55;;;;;;;16.65;7.18;;;11.70;99.90;;;;;;6194334;23;20165;-87
2021/10/26 00:32:20;;;;;;;21.08;8.93;;;11.70;99.90;;;;;;6194770;23;19993;-87
2021/10/26 00:34:47;;;;;;;26.75;10.70;;;11.70;99.90;;;;;;6194710;23;19997;-88
2021/10/26 00:37:13;;;;;;;21.20;10.18;;;11.80;99.90;;;;;;6194706;23;19997;-88
2021/10/26 00:39:39;;;;;;;27.67;11.00;;;11.70;99.90;;;;;;6168110;23;20216;-87
2021/10/26 00:42:07;;;;;;;23.70;9.48;;;11.70;99.90;;;;;;6194259;23;20005;-87
2021/10/26 00:44:32;;;;;;;20.15;7.45;;;11.60;99.90;;;;;;6167784;23;20028;-88
2021/10/26 00:46:58;;;;;;;17.83;6.57;;;11.60;99.90;;;;;;6167637;23;20001;-86
2021/10/26 00:49:24;;;;;;;17.33;6.18;;;11.60;99.90;;;;;;6168156;23;20016;-87
2021/10/26 00:51:51;;;;;;;16.30;5.85;;;11.50;99.90;;;;;;6194599;23;20178;-88
2021/10/26 00:54:18;;;;;;;13.60;4.95;;;11.50;99.90;;;;;;6194175;23;20001;-87
2021/10/26 00:56:45;;;;;;;15.55;5.50;;;11.50;99.90;;;;;;6168235;23;19993;-87
2021/10/26 00:59:10;;;;;;;20.63;7.05;;;11.50;99.90;;;;;;6167775;23;20021;-87
2021/10/26 01:01:36;;;;;;;27.92;8.55;;;11.50;99.90;;;;;;6194445;23;20198;-87
2021/10/26 01:04:02;;;;;;;25.20;8.35;;;11.50;99.90;;;;;;6194359;23;19993;-87
2021/10/26 01:06:29;;;;;;;24.80;7.47;;;11.40;99.90;;;;;;6193825;23;20193;-87
2021/10/26 01:08:55;;;;;;;25.90;8.13;;;11.40;99.90;;;;;;6193300;23;20020;-87
2021/10/26 01:11:22;;;;;;;35.22;10.10;;;11.40;99.90;;;;;;6168006;23;20352;-88
2021/10/26 01:13:48;;;;;;;36.08;10.85;;;11.40;99.90;;;;;;6194202;23;19997;-88
2021/10/26 01:16:14;;;;;;;32.55;10.77;;;11.40;99.90;;;;;;6194711;23;20016;-87
2021/10/26 01:18:40;;;;;;;35.70;13.80;;;11.40;99.90;;;;;;6193692;23;20008;-87
2021/10/26 01:21:05;;;;;;;38.67;15.45;;;11.40;99.90;;;;;;6194230;23;20277;-88
2021/10/26 01:23:32;;;;;;;29.77;14.35;;;11.40;99.90;;;;;;6194625;23;19994;-87
2021/10/26 01:26:00;;;;;;;32.75;14.63;;;11.40;99.90;;;;;;6194193;23;20222;-87
2021/10/26 01:28:26;;;;;;;27.35;13.07;;;11.40;99.90;;;;;;6194100;23;20009;-87
2021/10/26 01:30:52;;;;;;;33.45;11.30;;;11.30;99.90;;;;;;6193753;23;20035;-87
2021/10/26 01:33:17;;;;;;;26.65;10.98;;;11.30;99.90;;;;;;6194269;23;20020;-87
2021/10/26 01:35:43;;;;;;;33.70;11.07;;;11.30;99.90;;;;;;6193743;23;19993;-87
2021/10/26 01:38:09;;;;;;;41.65;14.63;;;11.40;99.90;;;;;;6167554;23;20001;-87
2021/10/26 01:40:36;;;;;;;50.70;16.08;;;11.40;99.90;;;;;;6193940;23;20028;-87
2021/10/26 01:43:01;;;;;;;52.65;14.85;;;11.30;99.90;;;;;;6194039;23;20019;-87
2021/10/26 01:45:27;;;;;;;51.63;15.18;;;11.40;99.90;;;;;;6194079;23;19989;-87
2021/10/26 01:47:53;;;;;;;52.83;15.60;;;11.30;99.90;;;;;;6167811;23;20009;-87
2021/10/26 01:50:19;;;;;;;54.55;16.20;;;11.30;99.90;;;;;;6167427;23;20000;-88
2021/10/26 01:52:45;;;;;;;53.42;15.27;;;11.30;99.90;;;;;;6194152;23;20001;-87
2021/10/26 01:55:12;;;;;;;54.47;16.45;;;11.20;99.90;;;;;;6167346;23;20009;-87
2021/10/26 01:57:38;;;;;;;39.63;15.32;;;11.20;99.90;;;;;;6194316;23;19993;-88
2021/10/26 02:00:09;;;;;;;42.63;16.00;;;11.20;99.90;;;;;;6192866;23;20501;-87
2021/10/26 02:02:34;;;;;;;41.33;15.05;;;11.20;99.90;;;;;;6166719;23;20001;-87
2021/10/26 02:05:01;;;;;;;43.75;15.63;;;11.20;99.90;;;;;;6167583;23;20023;-87
2021/10/26 02:07:26;;;;;;;41.00;15.52;;;11.10;99.90;;;;;;6193881;23;20032;-88
2021/10/26 02:09:52;;;;;;;39.75;15.63;;;11.10;99.90;;;;;;6193901;23;20001;-87
2021/10/26 02:12:19;;;;;;;30.13;14.05;;;11.10;99.90;;;;;;6167603;23;20015;-87
2021/10/26 02:14:45;;;;;;;35.05;15.05;;;11.00;99.90;;;;;;6167735;23;20363;-87
2021/10/26 02:17:11;;;;;;;34.45;13.50;;;11.00;99.90;;;;;;6193613;23;20257;-88
2021/10/26 02:19:36;;;;;;;35.33;12.65;;;11.00;99.90;;;;;;6193478;23;20048;-87
2021/10/26 02:22:02;;;;;;;32.08;13.30;;;11.00;99.90;;;;;;6193151;23;20292;-87
2021/10/26 02:24:28;;;;;;;34.85;13.25;;;11.00;99.90;;;;;;6193423;23;19997;-87
2021/10/26 02:26:55;;;;;;;26.73;12.10;;;10.90;99.90;;;;;;6167137;23;20064;-88
2021/10/26 02:29:21;;;;;;;38.03;13.75;;;10.90;99.90;;;;;;6193055;23;20020;-87
2021/10/26 02:31:47;;;;;;;27.73;12.70;;;10.90;99.90;;;;;;6193332;23;20099;-87
2021/10/26 02:34:13;;;;;;;32.17;12.57;;;10.90;99.90;;;;;;6193576;23;20209;-87
2021/10/26 02:36:38;;;;;;;27.55;12.77;;;10.90;99.90;;;;;;6192321;23;20016;-87
2021/10/26 02:39:06;;;;;;;26.27;11.75;;;10.80;99.90;;;;;;6193280;23;20281;-87
2021/10/26 02:41:32;;;;;;;26.27;12.23;;;10.80;99.90;;;;;;6193348;23;19994;-87
2021/10/26 02:43:58;;;;;;;28.13;11.38;;;10.80;99.90;;;;;;6193127;23;20012;-87
2021/10/26 02:46:24;;;;;;;22.40;10.57;;;10.70;99.90;;;;;;6193144;23;19997;-88
2021/10/26 02:48:49;;;;;;;22.67;10.75;;;10.70;99.90;;;;;;6167092;23;20121;-87
2021/10/26 02:51:16;;;;;;;22.20;10.27;;;10.70;99.90;;;;;;6167082;23;19996;-87
2021/10/26 02:53:42;;;;;;;23.52;10.38;;;10.80;99.90;;;;;;6193243;23;19994;-87
2021/10/26 02:56:08;;;;;;;24.42;11.02;;;10.80;99.90;;;;;;6192914;23;19997;-87
2021/10/26 02:58:34;;;;;;;23.70;9.88;;;10.80;99.90;;;;;;6192910;23;20048;-87
2021/10/26 03:00:59;;;;;;;21.48;9.98;;;10.80;99.90;;;;;;6167188;23;20043;-87
2021/10/26 03:03:25;;;;;;;18.52;9.25;;;10.80;99.90;;;;;;6193274;23;19997;-88
2021/10/26 03:05:51;;;;;;;17.70;9.90;;;10.80;99.90;;;;;;6193305;23;19993;-87
2021/10/26 03:08:17;;;;;;;20.67;9.63;;;10.80;99.90;;;;;;6192197;23;20118;-87
2021/10/26 03:10:43;;;;;;;20.38;9.82;;;10.70;99.90;;;;;;6192081;23;20035;-88
2021/10/26 03:13:09;;;;;;;19.88;9.52;;;10.70;99.90;;;;;;6192510;23;20008;-87
2021/10/26 03:15:35;;;;;;;24.15;9.90;;;10.80;99.90;;;;;;6192849;23;20201;-88
2021/10/26 03:18:02;;;;;;;16.45;9.70;;;10.80;99.90;;;;;;6166626;23;20043;-88
2021/10/26 03:20:28;;;;;;;24.00;10.20;;;10.70;99.90;;;;;;6193021;23;20036;-87
2021/10/26 03:22:54;;;;;;;20.83;9.65;;;10.80;99.90;;;;;;6192949;23;20020;-87
2021/10/26 03:25:21;;;;;;;21.33;10.15;;;10.80;99.90;;;;;;6166463;23;20403;-87
2021/10/26 03:27:48;;;;;;;19.35;9.38;;;10.70;99.90;;;;;;6166047;23;20327;-87
2021/10/26 03:30:14;;;;;;;24.75;10.55;;;10.80;99.90;;;;;;6192568;23;20052;-87
2021/10/26 03:32:40;;;;;;;17.42;9.57;;;10.70;99.90;;;;;;6193072;23;20004;-88
2021/10/26 03:35:06;;;;;;;18.98;9.23;;;10.70;99.90;;;;;;6193248;23;20200;-87
2021/10/26 03:37:35;;;;;;;17.73;9.52;;;10.70;99.90;;;;;;6192007;23;19997;-87
2021/10/26 03:40:01;;;;;;;22.75;10.18;;;10.70;99.90;;;;;;6193459;23;20036;-87
2021/10/26 03:42:27;;;;;;;27.13;10.75;;;10.60;99.90;;;;;;6166584;23;20074;-87
2021/10/26 03:44:53;;;;;;;19.80;10.75;;;10.70;99.90;;;;;;6192741;23;20069;-87
2021/10/26 03:47:19;;;;;;;22.60;10.95;;;10.70;99.90;;;;;;6190132;23;20001;-87
2021/10/26 03:49:45;;;;;;;19.00;9.60;;;10.70;99.90;;;;;;6191322;23;20068;-87
2021/10/26 03:52:12;;;;;;;22.52;9.95;;;10.80;99.90;;;;;;6192914;23;19989;-87
2021/10/26 03:54:40;;;;;;;21.38;9.77;;;10.80;99.90;;;;;;6192491;23;20450;-87
2021/10/26 03:57:09;;;;;;;29.92;11.35;;;10.70;99.90;;;;;;6193535;23;20031;-87
2021/10/26 03:59:36;;;;;;;35.33;12.93;;;10.80;99.90;;;;;;6193071;23;19997;-87
2021/10/26 04:02:11;;;;;;;32.05;12.93;;;10.90;99.90;;;;;;6192606;23;20056;-87
2021/10/26 04:04:38;;;;;;;36.40;12.73;;;11.00;99.90;;;;;;6192628;23;20277;-87
2021/10/26 04:07:06;;;;;;;34.97;12.38;;;11.00;99.90;;;;;;6192805;23;19996;-87
2021/10/26 04:09:44;;;;;;;40.55;13.70;;;11.10;99.90;;;;;;6201281;23;20021;-87
2021/10/26 04:14:46;;;;;;;32.17;12.43;;;11.10;99.90;;;;;;6210719;23;19997;-87
2021/10/26 04:17:12;;;;;;;33.75;12.00;;;11.10;99.90;;;;;;6210912;23;19989;-88
2021/10/26 04:19:37;;;;;;;32.95;11.85;;;11.10;99.90;;;;;;6209864;23;20037;-87
2021/10/26 04:22:03;;;;;;;30.35;11.48;;;11.00;99.90;;;;;;6211067;23;20009;-88
2021/10/26 04:24:29;;;;;;;25.35;12.23;;;11.00;99.90;;;;;;6201604;23;20072;-87
2021/10/26 04:26:54;;;;;;;32.03;11.73;;;11.00;99.90;;;;;;6183568;23;20041;-87
2021/10/26 04:29:21;;;;;;;28.55;11.27;;;10.90;99.90;;;;;;6183832;23;20032;-87
2021/10/26 04:31:47;;;;;;;28.10;10.95;;;10.90;99.90;;;;;;6181807;23;20009;-87
2021/10/26 04:34:12;;;;;;;27.75;12.10;;;10.80;99.90;;;;;;6182010;23;20088;-87
2021/10/26 04:36:38;;;;;;;22.90;10.77;;;10.80;99.90;;;;;;6189577;23;20003;-88
2021/10/26 04:39:05;;;;;;;27.80;11.60;;;10.80;99.90;;;;;;6194466;23;19993;-87
2021/10/26 04:41:33;;;;;;;21.50;10.63;;;10.70;99.90;;;;;;6190012;23;20084;-87
2021/10/26 04:44:01;;;;;;;23.88;10.77;;;10.80;99.90;;;;;;6181563;23;20016;-88
2021/10/26 04:46:29;;;;;;;23.25;11.15;;;10.70;99.90;;;;;;6183707;23;20001;-87
2021/10/26 04:48:55;;;;;;;22.77;11.10;;;10.70;99.90;;;;;;6183307;23;20013;-87
2021/10/26 04:51:20;;;;;;;23.10;10.07;;;10.70;99.90;;;;;;6183434;23;20007;-87
2021/10/26 04:53:46;;;;;;;22.92;9.98;;;10.60;99.90;;;;;;6183484;23;20011;-87
2021/10/26 04:56:12;;;;;;;24.05;11.05;;;10.60;99.90;;;;;;6183324;23;20077;-87
2021/10/26 04:58:37;;;;;;;24.27;10.48;;;10.60;99.90;;;;;;6183331;23;20502;-87
2021/10/26 05:01:03;;;;;;;25.08;10.70;;;10.50;99.90;;;;;;6183476;23;20001;-88
2021/10/26 05:03:31;;;;;;;23.58;10.05;;;10.60;99.90;;;;;;6181587;23;20015;-87
2021/10/26 05:05:57;;;;;;;18.60;9.57;;;10.60;99.90;;;;;;6183036;23;20063;-87
2021/10/26 05:08:23;;;;;;;19.60;8.80;;;10.60;99.90;;;;;;6183403;23;20063;-88
2021/10/26 05:10:49;;;;;;;18.13;9.52;;;10.60;99.90;;;;;;6186789;23;20001;-87
2021/10/26 05:13:14;;;;;;;19.10;9.18;;;10.60;99.90;;;;;;6183387;23;20084;-87
2021/10/26 05:15:42;;;;;;;18.77;9.70;;;10.60;99.90;;;;;;6183259;23;20004;-87
2021/10/26 05:18:09;;;;;;;17.33;9.02;;;10.50;99.90;;;;;;6183250;23;20465;-87
2021/10/26 05:20:36;;;;;;;15.48;8.77;;;10.60;99.90;;;;;;6183243;23;20438;-87
2021/10/26 05:23:03;;;;;;;16.88;9.25;;;10.60;99.90;;;;;;6184233;23;20012;-87
2021/10/26 05:25:29;;;;;;;16.45;8.93;;;10.50;99.90;;;;;;6183996;23;20013;-87
2021/10/26 05:27:55;;;;;;;17.80;9.20;;;10.50;99.90;;;;;;6183057;23;20346;-87
2021/10/26 05:30:20;;;;;;;18.25;9.18;;;10.50;99.90;;;;;;6183088;23;20001;-87
2021/10/26 05:32:46;;;;;;;20.15;9.98;;;10.50;99.90;;;;;;6180940;23;20350;-88
2021/10/26 05:35:12;;;;;;;19.50;9.18;;;10.50;99.90;;;;;;6153320;23;20273;-87
2021/10/26 05:37:37;;;;;;;17.95;9.38;;;10.50;99.90;;;;;;6156071;23;20430;-88
2021/10/26 05:40:05;;;;;;;13.55;8.50;;;10.40;99.90;;;;;;6158210;23;20012;-87
2021/10/26 05:42:31;;;;;;;16.55;8.52;;;10.50;99.90;;;;;;6156335;23;20033;-87
2021/10/26 05:44:56;;;;;;;16.58;8.85;;;10.40;99.90;;;;;;6155867;23;20031;-87
2021/10/26 05:47:23;;;;;;;14.90;8.40;;;10.40;99.90;;;;;;6155618;23;20075;-87
2021/10/26 05:49:48;;;;;;;13.15;8.20;;;10.40;99.90;;;;;;6182980;23;20012;-87
2021/10/26 05:52:14;;;;;;;18.40;7.80;;;10.50;99.90;;;;;;6182446;23;20405;-88
2021/10/26 05:54:40;;;;;;;14.50;7.75;;;10.50;99.90;;;;;;6184596;23;20165;-87
2021/10/26 05:57:06;;;;;;;12.57;7.60;;;10.50;99.90;;;;;;6182989;23;20083;-87
2021/10/26 05:59:31;;;;;;;18.08;7.80;;;10.60;99.90;;;;;;6183170;23;19997;-87
2021/10/26 06:01:57;;;;;;;16.65;7.75;;;10.60;99.90;;;;;;6182913;23;20009;-88
2021/10/26 06:04:24;;;;;;;14.40;7.40;;;10.60;99.90;;;;;;6183072;23;20001;-87
2021/10/26 06:06:50;;;;;;;12.55;7.72;;;10.70;99.90;;;;;;6156217;23;20056;-87
2021/10/26 06:09:17;;;;;;;12.65;7.50;;;10.70;99.90;;;;;;6181204;23;20446;-87
2021/10/26 06:11:47;;;;;;;13.48;7.32;;;10.70;99.90;;;;;;6180515;23;20008;-87
2021/10/26 06:14:12;;;;;;;14.70;7.68;;;10.80;99.90;;;;;;6180228;23;20009;-88
2021/10/26 06:16:40;;;;;;;15.43;8.32;;;10.90;99.90;;;;;;6181843;23;20069;-87
2021/10/26 06:19:05;;;;;;;20.40;7.88;;;11.00;99.90;;;;;;6182318;23;20064;-87
2021/10/26 06:21:32;;;;;;;18.70;8.50;;;11.00;99.90;;;;;;6156138;23;20418;-87
2021/10/26 06:23:59;;;;;;;13.95;7.57;;;11.00;99.90;;;;;;6155529;23;20005;-88
2021/10/26 06:26:25;;;;;;;12.98;6.90;;;11.10;99.90;;;;;;6155385;23;20161;-87
2021/10/26 06:28:51;;;;;;;13.35;6.72;;;11.10;99.90;;;;;;6155461;23;20013;-87
2021/10/26 06:31:19;;;;;;;12.88;7.25;;;11.20;99.90;;;;;;6155736;23;20013;-87
2021/10/26 06:33:45;;;;;;;13.80;6.90;;;11.20;99.90;;;;;;6155302;23;20059;-87
2021/10/26 06:36:11;;;;;;;11.70;6.45;;;11.20;99.90;;;;;;6155125;23;20391;-87
2021/10/26 06:38:39;;;;;;;13.65;7.00;;;11.30;99.90;;;;;;6181953;23;20005;-87
2021/10/26 06:41:05;;;;;;;13.82;6.47;;;11.30;99.90;;;;;;6182581;23;20011;-87
2021/10/26 06:43:33;;;;;;;11.38;6.10;;;11.30;99.90;;;;;;6155955;23;20411;-87
2021/10/26 06:45:59;;;;;;;8.73;5.72;;;11.20;99.90;;;;;;6180863;23;20253;-87
2021/10/26 06:48:26;;;;;;;11.65;6.00;;;11.20;99.90;;;;;;6155668;23;20277;-87
2021/10/26 06:50:53;;;;;;;14.77;6.00;;;11.20;99.90;;;;;;6183304;23;20056;-87
2021/10/26 06:53:19;;;;;;;13.43;6.05;;;11.10;99.90;;;;;;6182623;23;20012;-87
2021/10/26 06:55:46;;;;;;;9.88;5.85;;;11.10;99.90;;;;;;6182633;23;20001;-87
2021/10/26 06:58:12;;;;;;;12.43;6.05;;;11.10;99.90;;;;;;6160178;23;20015;-87
2021/10/26 07:00:38;;;;;;;10.27;5.50;;;11.00;99.90;;;;;;6181910;23;20028;-87
2021/10/26 07:03:04;;;;;;;12.63;5.72;;;11.00;99.90;;;;;;6155689;23;20005;-87
2021/10/26 07:05:34;;;;;;;13.70;5.97;;;11.00;99.90;;;;;;6156189;23;20005;-87
2021/10/26 07:07:59;;;;;;;10.00;6.07;;;11.00;99.90;;;;;;6182226;23;20334;-88
2021/10/26 07:10:25;;;;;;;12.63;6.40;;;11.00;99.90;;;;;;6170083;23;20001;-87
2021/10/26 07:12:52;;;;;;;12.45;6.22;;;11.00;99.90;;;;;;6182424;23;20052;-87
2021/10/26 07:15:17;;;;;;;12.98;6.20;;;11.10;99.90;;;;;;6181232;23;20008;-86
2021/10/26 07:17:43;;;;;;;12.25;6.88;;;11.00;99.90;;;;;;6182927;23;19997;-86
2021/10/26 07:20:13;;;;;;;15.52;6.40;;;11.10;99.90;;;;;;6182286;23;20009;-87
2021/10/26 07:22:41;;;;;;;12.80;6.60;;;11.20;99.90;;;;;;6180595;23;20001;-85
2021/10/26 07:25:09;;;;;;;14.27;6.10;;;11.30;99.90;;;;;;6181845;23;20020;-86
2021/10/26 07:27:39;;;;;;;10.45;5.80;;;11.40;99.90;;;;;;6181870;23;20437;-86
2021/10/26 07:30:09;;;;;;;11.80;7.05;;;11.40;99.90;;;;;;6180136;23;20020;-87
2021/10/26 07:32:35;;;;;;;12.63;6.47;;;11.50;99.90;;;;;;6183178;23;19993;-87
2021/10/26 07:35:01;;;;;;;11.75;6.03;;;11.70;99.90;;;;;;6182350;23;20454;-87
2021/10/26 07:37:33;;;;;;;12.02;5.45;;;11.80;99.90;;;;;;6181800;23;20054;-87
2021/10/26 07:39:59;;;;;;;13.55;5.72;;;11.90;99.90;;;;;;6182451;23;20478;-87
2021/10/26 07:42:25;;;;;;;12.82;5.60;;;12.00;99.90;;;;;;6180430;23;20016;-87
2021/10/26 07:44:52;;;;;;;11.57;6.68;;;12.10;99.90;;;;;;6180370;23;20009;-87
2021/10/26 07:47:20;;;;;;;13.15;5.85;;;12.10;99.90;;;;;;6181987;23;20370;-87
2021/10/26 07:49:51;;;;;;;13.23;5.60;;;12.20;99.90;;;;;;6182295;23;20040;-87
2021/10/26 07:52:18;;;;;;;11.00;4.75;;;12.20;99.90;;;;;;6181660;23;20435;-87
2021/10/26 07:54:52;;;;;;;9.18;4.38;;;12.30;99.90;;;;;;6180837;23;20167;-87
2021/10/26 07:57:20;;;;;;;15.13;5.32;;;12.40;99.90;;;;;;6182458;23;20449;-88
2021/10/26 07:59:46;;;;;;;12.27;5.53;;;12.40;99.90;;;;;;6183678;23;20362;-88
2021/10/26 08:02:17;;;;;;;11.68;5.40;;;12.50;99.90;;;;;;6183918;23;19998;-87
2021/10/26 08:04:46;;;;;;;11.27;5.38;;;12.60;99.90;;;;;;6157456;23;20036;-87
2021/10/26 08:07:16;;;;;;;10.10;4.85;;;12.60;99.90;;;;;;6157821;23;20028;-87
2021/10/26 08:09:43;;;;;;;13.15;6.25;;;12.70;99.90;;;;;;6158136;23;20013;-87
2021/10/26 08:12:09;;;;;;;12.45;5.60;;;12.80;99.90;;;;;;6157705;23;20008;-87
2021/10/26 08:14:35;;;;;;;14.02;5.70;;;12.80;99.90;;;;;;6157499;23;20089;-87
2021/10/26 08:17:01;;;;;;;15.27;5.70;;;12.80;99.90;;;;;;6161481;23;20031;-87
2021/10/26 08:19:27;;;;;;;11.63;5.88;;;12.80;99.90;;;;;;6183657;23;20005;-88
2021/10/26 08:21:53;;;;;;;12.88;5.90;;;12.90;99.90;;;;;;6159882;23;20025;-87
2021/10/26 08:24:21;;;;;;;13.38;5.97;;;13.00;99.90;;;;;;6157584;23;20005;-87
2021/10/26 08:26:56;;;;;;;12.07;5.72;;;13.00;99.90;;;;;;6157298;23;20020;-87
2021/10/26 08:29:35;;;;;;;14.60;9.73;;;13.10;99.90;;;;;;6183842;23;20059;-87
2021/10/26 08:34:43;;;;;;;13.70;5.63;;;13.20;99.90;;;;;;6183907;23;20005;-88
2021/10/26 08:37:10;;;;;;;8.95;5.70;;;13.30;99.90;;;;;;6157505;23;20308;-88
2021/10/26 08:39:38;;;;;;;14.40;6.50;;;13.40;99.90;;;;;;6183287;23;20004;-88
2021/10/26 08:42:06;;;;;;;10.80;4.93;;;13.40;99.90;;;;;;6157781;23;20048;-88
2021/10/26 08:44:34;;;;;;;10.98;5.20;;;13.50;99.90;;;;;;6157126;23;20001;-87
2021/10/26 08:47:01;;;;;;;12.25;4.53;;;13.50;99.90;;;;;;6183667;23;20084;-88
2021/10/26 08:49:27;;;;;;;9.32;5.28;;;13.50;99.90;;;;;;6156972;23;20016;-87
2021/10/26 08:51:54;;;;;;;11.75;5.15;;;13.50;99.90;;;;;;6183470;23;20001;-88
2021/10/26 08:54:20;;;;;;;12.20;4.80;;;13.60;99.90;;;;;;6182871;23;20457;-88
2021/10/26 08:56:48;;;;;;;16.50;4.82;;;13.70;99.90;;;;;;6183208;23;20008;-88
2021/10/26 08:59:19;;;;;;;10.73;4.38;;;13.70;99.90;;;;;;6156544;23;20005;-88
2021/10/26 09:01:52;;;;;;;12.10;4.28;;;13.70;99.90;;;;;;6183415;23;20001;-87
2021/10/26 09:04:18;;;;;;;8.20;3.53;;;13.70;99.90;;;;;;6181557;23;20033;-87
2021/10/26 09:06:53;;;;;;;14.82;4.40;;;13.80;99.90;;;;;;6181589;23;20352;-87
2021/10/26 09:09:21;;;;;;;11.82;4.18;;;13.90;99.90;;;;;;6182906;23;20458;-88
2021/10/26 09:17:27;;;;;;;;;;;14.10;99.90;;;;;;6183400;23;20399;-88
2021/10/26 09:19:55;;;;;;;13.05;3.95;;;14.30;99.90;;;;;;6183309;23;19907;-88
2021/10/26 09:22:21;;;;;;;7.38;3.72;;;14.40;99.90;;;;;;6183380;23;20025;-87
2021/10/26 09:25:03;;;;;;;14.10;3.72;;;14.50;99.90;;;;;;6156124;23;20345;-88
2021/10/26 09:27:29;;;;;;;10.05;4.00;;;14.60;99.90;;;;;;6156651;23;20045;-88
2021/10/26 09:30:03;;;;;;;12.45;3.58;;;14.70;99.90;;;;;;6183385;23;20381;-88
2021/10/26 09:32:48;;;;;;;11.88;3.85;;;14.90;99.90;;;;;;6156469;23;20089;-88
2021/10/26 09:35:17;;;;;;;15.40;3.10;;;15.10;99.90;;;;;;6184194;23;20001;-88
2021/10/26 09:37:47;;;;;;;12.55;3.60;;;15.30;99.90;;;;;;6183061;23;20005;-88
2021/10/26 09:40:14;;;;;;;11.38;3.28;;;15.40;99.90;;;;;;6183625;23;20089;-88
2021/10/26 09:42:45;;;;;;;12.40;3.22;;;15.40;99.90;;;;;;6156798;23;20005;-88
2021/10/26 09:45:32;;;;;;;17.08;4.32;;;15.30;99.90;;;;;;6183460;23;20434;-88
2021/10/26 09:48:13;;;;;;;15.90;3.97;;;15.40;99.90;;;;;;6183537;23;20086;-88
2021/10/26 09:50:40;;;;;;;12.00;3.10;;;15.40;99.90;;;;;;6156599;23;20095;-88
2021/10/26 09:53:14;;;;;;;13.05;3.78;;;15.50;99.90;;;;;;6156439;23;20005;-88
2021/10/26 09:55:48;;;;;;;13.00;3.30;;;15.50;99.90;;;;;;6157073;23;20011;-88
2021/10/26 09:58:19;;;;;;;16.25;3.55;;;15.50;99.90;;;;;;6156606;23;20005;-88
2021/10/26 10:00:47;;;;;;;12.57;2.95;;;15.60;99.90;;;;;;6183334;23;20375;-87
2021/10/26 10:03:23;;;;;;;15.70;2.83;;;15.60;99.90;;;;;;6183173;23;20076;-88
2021/10/26 10:05:54;;;;;;;21.23;3.88;;;15.70;99.90;;;;;;6182656;23;19997;-86
2021/10/26 10:08:23;;;;;;;12.98;2.85;;;15.80;99.90;;;;;;6182527;23;20009;-86
2021/10/26 10:10:51;;;;;;;16.35;3.80;;;15.80;99.90;;;;;;6156473;23;20004;-86
2021/10/26 10:13:17;;;;;;;19.02;3.38;;;15.90;99.90;;;;;;6182825;23;20430;-87
2021/10/26 10:15:48;;;;;;;16.58;3.33;;;16.00;99.90;;;;;;6183358;23;20180;-87
2021/10/26 10:18:19;;;;;;;17.35;3.60;;;16.00;99.90;;;;;;6182994;23;20080;-87
2021/10/26 10:20:48;;;;;;;15.13;3.72;;;16.10;99.90;;;;;;6182815;23;20020;-87
2021/10/26 10:23:14;;;;;;;13.27;3.88;;;16.20;99.90;;;;;;6182591;23;20024;-87
2021/10/26 10:25:44;;;;;;;13.05;3.00;;;16.20;99.90;;;;;;6182493;23;20445;-87
2021/10/26 10:28:10;;;;;;;14.07;3.60;;;16.20;99.90;;;;;;6182379;23;20008;-87
2021/10/26 10:30:38;;;;;;;16.70;3.92;;;16.20;99.90;;;;;;6182626;23;20031;-87
2021/10/26 10:33:05;;;;;;;15.20;3.30;;;16.20;99.90;;;;;;6182624;23;20001;-86
2021/10/26 10:35:32;;;;;;;16.73;3.22;;;16.20;99.90;;;;;;6156880;23;20454;-87
2021/10/26 10:38:01;;;;;;;19.40;4.53;;;16.20;99.90;;;;;;6156534;23;20120;-87
2021/10/26 10:40:28;;;;;;;19.02;3.15;;;16.40;99.90;;;;;;6182582;23;20470;-87
2021/10/26 10:42:55;;;;;;;18.30;3.92;;;16.40;99.90;;;;;;6189791;23;19994;-87
2021/10/26 10:45:40;;;;;;;16.08;4.18;;;16.40;99.90;;;;;;6157032;23;20008;-87
2021/10/26 10:48:23;;;;;;;16.35;4.22;;;16.50;99.90;;;;;;6158317;23;20576;-87
2021/10/26 10:51:12;;;;;;;17.27;3.90;;;16.50;99.90;;;;;;6155791;23;20009;-87
2021/10/26 10:53:40;;;;;;;17.33;3.15;;;16.50;99.90;;;;;;6183484;23;19997;-87
2021/10/26 10:56:19;;;;;;;18.50;3.20;;;16.60;99.90;;;;;;6155786;23;20033;-87
2021/10/26 10:58:49;;;;;;;17.25;3.25;;;16.60;99.90;;;;;;6184664;23;20079;-86
2021/10/26 11:01:35;;;;;;;15.00;2.95;;;16.60;99.90;;;;;;6184302;23;20005;-88
2021/10/26 11:04:23;;;;;;;23.85;4.40;;;16.70;99.90;;;;;;6182911;23;20005;-87
2021/10/26 11:06:51;;;;;;;17.67;3.70;;;16.70;99.90;;;;;;6155683;23;20008;-87
2021/10/26 11:09:34;;;;;;;16.45;3.42;;;16.70;99.90;;;;;;6184498;23;20293;-87
2021/10/26 11:12:28;;;;;;;13.05;2.92;;;16.80;99.90;;;;;;6155862;23;20341;-87
2021/10/26 11:15:11;;;;;;;13.93;3.58;;;16.80;99.90;;;;;;6155705;23;20036;-87
2021/10/26 11:17:41;;;;;;;13.48;3.92;;;16.80;99.90;;;;;;6182484;23;19997;-87
2021/10/26 11:20:25;;;;;;;20.85;3.63;;;16.90;99.90;;;;;;6181835;23;20005;-87
2021/10/26 11:23:02;;;;;;;15.10;3.45;;;17.00;99.90;;;;;;6182309;23;20001;-87
2021/10/26 11:25:32;;;;;;;14.75;3.03;;;17.00;99.90;;;;;;6182133;23;20036;-87
2021/10/26 11:27:59;;;;;;;12.43;2.58;;;16.90;99.90;;;;;;6182034;23;20233;-87
2021/10/26 11:30:27;;;;;;;16.88;3.40;;;17.10;99.90;;;;;;6181946;23;20001;-88
2021/10/26 11:33:12;;;;;;;18.95;2.90;;;17.10;99.90;;;;;;6181671;23;19998;-88
2021/10/26 11:35:46;;;;;;;14.43;3.47;;;17.30;99.90;;;;;;6180837;23;20342;-89
2021/10/26 11:38:12;;;;;;;;;;;17.20;99.90;;;;;;6179843;23;20040;-88
2021/10/26 11:40:49;;;;;;;;;;;17.10;99.90;;;;;;6181103;23;19900;-89
2021/10/26 11:43:15;;;;;;;;;;;17.10;99.90;;;;;;6152034;23;19993;-89
2021/10/26 11:45:52;;;;;;;;;;;17.20;99.90;;;;;;6178964;23;19908;-89
2021/10/26 11:48:36;;;;;;;;;;;17.30;99.90;;;;;;6152329;23;19985;-89
2021/10/26 11:51:37;;;;;;;;;;;17.20;99.90;;;;;;6179244;23;19908;-89
2021/10/26 11:54:09;;;;;;;;;;;17.20;99.90;;;;;;6076183;23;19905;-89
2021/10/26 11:56:35;;;;;;;;;;;17.40;99.90;;;;;;6180846;23;19927;-88
2021/10/26 11:59:08;;;;;;;;;;;17.40;99.90;;;;;;6156055;23;19959;-89
2021/10/26 12:01:35;;;;;;;;;;;17.40;99.90;;;;;;6182534;23;19947;-88
2021/10/26 12:04:01;;;;;;;;;;;17.40;99.90;;;;;;6156165;23;20233;-89
2021/10/26 12:06:36;;;;;;;;;;;17.40;99.90;;;;;;6156089;23;20001;-89
2021/10/26 12:09:04;;;;;;;;;;;17.60;99.90;;;;;;6155344;23;20325;-89
2021/10/26 12:11:33;;;;;;;;;;;17.80;99.90;;;;;;6182498;23;19900;-89
2021/10/26 12:14:28;;;;;;;;;;;17.70;99.90;;;;;;6182463;23;19901;-89
2021/10/26 12:17:06;;;;;;;;;;;17.70;99.90;;;;;;6124620;23;20013;-89
2021/10/26 12:19:32;;;;;;;;;;;17.60;99.90;;;;;;6183051;23;19954;-89
2021/10/26 12:21:59;;;;;;;;;;;17.80;99.90;;;;;;6156035;23;20158;-89
2021/10/26 12:24:28;;;;;;;;;;;17.90;99.90;;;;;;6182668;23;19913;-89
2021/10/26 12:27:08;;;;;;;;;;;18.00;99.90;;;;;;6182236;23;20381;-89
2021/10/26 12:29:37;;;;;;;;;;;18.00;99.90;;;;;;6182455;23;19925;-89
2021/10/26 12:32:06;;;;;;;;;;;18.10;99.90;;;;;;6182381;23;19978;-89
2021/10/26 12:34:43;;;;;;;;;;;18.00;99.90;;;;;;6155803;23;20321;-88
2021/10/26 12:37:15;;;;;;;;;;;18.10;99.90;;;;;;6182307;23;19954;-88
2021/10/26 12:39:43;;;;;;;;;;;18.00;99.90;;;;;;6183004;23;19901;-88
2021/10/26 12:42:26;;;;;;;;;;;18.10;99.90;;;;;;6182628;23;19907;-89
2021/10/26 12:44:53;;;;;;;;;;;18.20;99.90;;;;;;6184287;23;19904;-88
2021/10/26 12:47:18;;;;;;;;;;;18.30;99.90;;;;;;6183863;23;19930;-89
2021/10/26 12:49:44;;;;;;;;;;;18.30;99.90;;;;;;6158669;23;20297;-88
2021/10/26 12:52:13;;;;;;;;;;;18.30;99.90;;;;;;6184290;23;20285;-89
2021/10/26 12:54:39;;;;;;;;;;;18.30;99.90;;;;;;6184685;23;19904;-89
2021/10/26 12:57:05;;;;;;;;;;;18.40;99.90;;;;;;6184772;23;19907;-89
2021/10/26 12:59:31;;;;;;;;;;;18.40;99.90;;;;;;6184413;23;19935;-89
2021/10/26 13:02:07;;;;;;;;;;;18.50;99.90;;;;;;6184377;23;20313;-89